createdAt,value
2017-09-08T00:00:15.616Z,13.3
2017-09-08T00:01:18.012Z,13.3
2017-09-08T00:02:20.410Z,13.3
2017-09-08T00:03:22.802Z,13.3
2017-09-08T00:04:25.202Z,13.3
2017-09-08T00:05:27.595Z,13.3
2017-09-08T00:06:30.025Z,13.3
2017-09-08T00:07:32.388Z,13.3
2017-09-08T00:08:34.779Z,13.3
2017-09-08T00:09:37.166Z,13.3
2017-09-08T00:10:39.568Z,13.3
2017-09-08T00:11:41.960Z,13.3
2017-09-08T00:12:44.350Z,13.3
2017-09-08T00:13:46.749Z,13.3
2017-09-08T00:14:49.143Z,13.3
2017-09-08T00:15:51.540Z,13.3
2017-09-08T00:16:53.943Z,13.3
2017-09-08T00:17:56.322Z,13.3
2017-09-08T00:18:59.059Z,13.3
2017-09-08T00:20:01.800Z,13.3
2017-09-08T00:21:04.195Z,13.3
2017-09-08T00:22:06.585Z,13.3
2017-09-08T00:23:08.974Z,13.3
2017-09-08T00:24:11.362Z,13.3
2017-09-08T00:25:14.104Z,13.3
2017-09-08T00:26:16.505Z,13.3
2017-09-08T00:27:18.899Z,13.3
2017-09-08T00:28:21.297Z,13.3
2017-09-08T00:29:23.695Z,13.3
2017-09-08T00:30:26.088Z,13.3
2017-09-08T00:31:28.488Z,13.3
2017-09-08T00:32:30.870Z,13.3
2017-09-08T00:33:33.260Z,13.3
2017-09-08T00:34:35.660Z,13.3
2017-09-08T00:35:38.052Z,13.3
2017-09-08T00:36:40.441Z,13.3
2017-09-08T00:37:42.830Z,13.3
2017-09-08T00:38:45.223Z,13.3
2017-09-08T00:39:47.631Z,13.3
2017-09-08T00:40:50.027Z,13.3
2017-09-08T00:41:52.419Z,13.3
2017-09-08T00:42:54.812Z,13.3
2017-09-08T00:43:57.205Z,13.3
2017-09-08T00:44:59.604Z,13.3
2017-09-08T00:46:02.000Z,13.3
2017-09-08T00:47:04.394Z,13.3
2017-09-08T00:48:06.794Z,13.3
2017-09-08T00:49:09.189Z,13.3
2017-09-08T00:50:11.586Z,13.3
2017-09-08T00:51:13.974Z,13.3
2017-09-08T00:52:16.362Z,13.3
2017-09-08T00:53:18.761Z,13.3
2017-09-08T00:54:21.155Z,13.3
2017-09-08T00:55:23.550Z,13.3
2017-09-08T00:56:25.945Z,13.3
2017-09-08T00:57:28.343Z,13.3
2017-09-08T00:58:30.728Z,13.3
2017-09-08T00:59:33.126Z,13.3
2017-09-08T01:00:35.528Z,13.3
2017-09-08T01:01:37.919Z,13.3
2017-09-08T01:02:40.314Z,13.3
2017-09-08T01:03:42.711Z,13.3
2017-09-08T01:04:45.799Z,13.3
2017-09-08T01:05:48.200Z,13.3
2017-09-08T01:06:50.594Z,13.3
2017-09-08T01:07:52.977Z,13.3
2017-09-08T01:08:55.373Z,13.3
2017-09-08T01:09:57.769Z,13.3
2017-09-08T01:11:00.166Z,13.3
2017-09-08T01:12:02.559Z,13.3
2017-09-08T01:13:04.939Z,13.3
2017-09-08T01:14:07.339Z,13.3
2017-09-08T01:15:10.076Z,13.3
2017-09-08T01:16:12.470Z,13.3
2017-09-08T01:17:14.864Z,13.3
2017-09-08T01:18:17.260Z,13.3
2017-09-08T01:19:19.657Z,13.3
2017-09-08T01:20:22.057Z,13.3
2017-09-08T01:21:24.447Z,13.3
2017-09-08T01:22:27.170Z,13.3
2017-09-08T01:23:29.931Z,13.3
2017-09-08T01:24:32.303Z,13.3
2017-09-08T01:25:35.035Z,13.3
2017-09-08T01:26:37.430Z,13.3
2017-09-08T01:27:39.831Z,13.3
2017-09-08T01:28:42.227Z,13.3
2017-09-08T01:29:44.613Z,13.3
2017-09-08T01:30:47.010Z,13.3
2017-09-08T01:31:49.388Z,13.3
2017-09-08T01:32:51.786Z,13.3
2017-09-08T01:33:54.185Z,13.4
2017-09-08T01:34:56.575Z,13.3
2017-09-08T01:35:58.968Z,13.4
2017-09-08T01:37:01.360Z,13.3
2017-09-08T01:38:03.753Z,13.4
2017-09-08T01:39:06.161Z,13.4
2017-09-08T01:40:08.551Z,13.4
2017-09-08T01:41:11.283Z,13.4
2017-09-08T01:42:13.684Z,13.4
2017-09-08T01:43:16.079Z,13.4
2017-09-08T01:44:18.471Z,13.4
2017-09-08T01:45:20.876Z,13.4
2017-09-08T01:46:23.602Z,13.4
2017-09-08T01:47:26.338Z,13.4
2017-09-08T01:48:28.735Z,13.4
2017-09-08T01:49:31.127Z,13.4
2017-09-08T01:50:33.517Z,13.4
2017-09-08T01:51:35.912Z,13.5
2017-09-08T01:52:38.306Z,13.4
2017-09-08T01:53:40.699Z,13.4
2017-09-08T01:54:43.089Z,13.4
2017-09-08T01:55:45.487Z,13.5
2017-09-08T01:56:47.871Z,13.5
2017-09-08T01:57:50.270Z,13.5
2017-09-08T01:58:52.991Z,13.5
2017-09-08T01:59:55.382Z,13.5
2017-09-08T02:00:57.770Z,13.5
2017-09-08T02:02:00.170Z,13.5
2017-09-08T02:03:02.902Z,13.5
2017-09-08T02:04:05.300Z,13.5
2017-09-08T02:05:07.696Z,13.5
2017-09-08T02:06:10.085Z,13.5
2017-09-08T02:07:12.477Z,13.5
2017-09-08T02:08:14.874Z,13.5
2017-09-08T02:09:17.262Z,13.5
2017-09-08T02:10:19.666Z,13.5
2017-09-08T02:11:22.057Z,13.5
2017-09-08T02:12:24.811Z,13.5
2017-09-08T02:13:27.204Z,13.5
2017-09-08T02:14:29.595Z,13.5
2017-09-08T02:15:31.989Z,13.5
2017-09-08T02:16:34.387Z,13.5
2017-09-08T02:17:36.776Z,13.5
2017-09-08T02:18:39.170Z,13.5
2017-09-08T02:19:41.560Z,13.5
2017-09-08T02:20:43.957Z,13.5
2017-09-08T02:21:46.713Z,13.5
2017-09-08T02:22:49.111Z,13.5
2017-09-08T02:23:51.508Z,13.5
2017-09-08T02:24:53.898Z,13.4
2017-09-08T02:25:56.289Z,13.5
2017-09-08T02:26:58.685Z,13.5
2017-09-08T02:28:01.076Z,13.5
2017-09-08T02:29:03.478Z,13.4
2017-09-08T02:30:05.865Z,13.4
2017-09-08T02:31:08.257Z,13.4
2017-09-08T02:32:10.654Z,13.5
2017-09-08T02:33:13.048Z,13.5
2017-09-08T02:34:15.451Z,13.5
2017-09-08T02:35:17.847Z,13.4
2017-09-08T02:36:20.237Z,13.4
2017-09-08T02:37:22.636Z,13.5
2017-09-08T02:38:25.021Z,13.5
2017-09-08T02:39:27.413Z,13.4
2017-09-08T02:40:29.814Z,13.4
2017-09-08T02:41:32.207Z,13.4
2017-09-08T02:42:34.601Z,13.4
2017-09-08T02:43:36.999Z,13.4
2017-09-08T02:44:39.386Z,13.4
2017-09-08T02:45:41.780Z,13.4
2017-09-08T02:46:44.169Z,13.4
2017-09-08T02:47:46.563Z,13.4
2017-09-08T02:48:48.958Z,13.4
2017-09-08T02:49:51.354Z,13.4
2017-09-08T02:50:53.750Z,13.4
2017-09-08T02:51:56.150Z,13.4
2017-09-08T02:52:58.549Z,13.4
2017-09-08T02:54:00.940Z,13.4
2017-09-08T02:55:03.338Z,13.4
2017-09-08T02:56:05.728Z,13.4
2017-09-08T02:57:08.129Z,13.4
2017-09-08T02:58:10.522Z,13.4
2017-09-08T02:59:12.913Z,13.4
2017-09-08T03:00:15.308Z,13.4
2017-09-08T03:01:17.701Z,13.4
2017-09-08T03:02:20.095Z,13.4
2017-09-08T03:03:22.486Z,13.4
2017-09-08T03:04:24.870Z,13.4
2017-09-08T03:05:27.265Z,13.4
2017-09-08T03:06:29.660Z,13.4
2017-09-08T03:07:32.060Z,13.4
2017-09-08T03:08:34.453Z,13.4
2017-09-08T03:09:36.849Z,13.4
2017-09-08T03:10:39.603Z,13.4
2017-09-08T03:11:42.002Z,13.4
2017-09-08T03:12:44.390Z,13.4
2017-09-08T03:13:46.781Z,13.4
2017-09-08T03:14:49.170Z,13.4
2017-09-08T03:15:51.559Z,13.4
2017-09-08T03:16:53.958Z,13.4
2017-09-08T03:17:56.355Z,13.4
2017-09-08T03:18:58.736Z,13.4
2017-09-08T03:20:01.135Z,13.4
2017-09-08T03:21:03.530Z,13.4
2017-09-08T03:22:05.922Z,13.4
2017-09-08T03:23:08.310Z,13.4
2017-09-08T03:24:10.702Z,13.4
2017-09-08T03:25:13.443Z,13.4
2017-09-08T03:26:15.844Z,13.4
2017-09-08T03:27:18.235Z,13.4
2017-09-08T03:28:20.637Z,13.4
2017-09-08T03:29:23.021Z,13.4
2017-09-08T03:30:25.423Z,13.4
2017-09-08T03:31:27.812Z,13.4
2017-09-08T03:32:30.201Z,13.4
2017-09-08T03:33:32.597Z,13.4
2017-09-08T03:34:34.991Z,13.4
2017-09-08T03:35:37.387Z,13.4
2017-09-08T03:36:39.784Z,13.4
2017-09-08T03:37:42.175Z,13.4
2017-09-08T03:38:44.564Z,13.4
2017-09-08T03:39:46.957Z,13.4
2017-09-08T03:40:49.351Z,13.4
2017-09-08T03:41:52.072Z,13.4
2017-09-08T03:42:54.471Z,13.4
2017-09-08T03:43:56.857Z,13.4
2017-09-08T03:44:59.258Z,13.4
2017-09-08T03:46:01.651Z,13.4
2017-09-08T03:47:04.046Z,13.4
2017-09-08T03:48:06.444Z,13.4
2017-09-08T03:49:08.843Z,13.4
2017-09-08T03:50:11.228Z,13.4
2017-09-08T03:51:13.627Z,13.4
2017-09-08T03:52:16.030Z,13.4
2017-09-08T03:53:18.425Z,13.4
2017-09-08T03:54:21.155Z,13.4
2017-09-08T03:55:23.545Z,13.4
2017-09-08T03:56:25.944Z,13.4
2017-09-08T03:57:28.335Z,13.5
2017-09-08T03:58:30.726Z,13.5
2017-09-08T03:59:33.119Z,13.4
2017-09-08T04:00:35.509Z,13.4
2017-09-08T04:01:37.910Z,13.4
2017-09-08T04:02:40.643Z,13.4
2017-09-08T04:03:43.026Z,13.4
2017-09-08T04:04:45.425Z,13.4
2017-09-08T04:05:47.818Z,13.4
2017-09-08T04:06:50.216Z,13.4
2017-09-08T04:07:52.605Z,13.4
2017-09-08T04:08:54.991Z,13.4
2017-09-08T04:09:57.387Z,13.4
2017-09-08T04:10:59.791Z,13.4
2017-09-08T04:12:02.185Z,13.4
2017-09-08T04:13:04.573Z,13.4
2017-09-08T04:14:06.968Z,13.4
2017-09-08T04:15:09.361Z,13.4
2017-09-08T04:16:11.767Z,13.4
2017-09-08T04:17:14.153Z,13.4
2017-09-08T04:18:16.539Z,13.4
2017-09-08T04:19:18.932Z,13.4
2017-09-08T04:20:21.322Z,13.3
2017-09-08T04:21:23.720Z,13.3
2017-09-08T04:22:26.112Z,13.3
2017-09-08T04:23:28.508Z,13.3
2017-09-08T04:24:30.900Z,13.3
2017-09-08T04:25:33.292Z,13.3
2017-09-08T04:26:35.685Z,13.3
2017-09-08T04:27:38.082Z,13.3
2017-09-08T04:28:40.472Z,13.3
2017-09-08T04:29:42.869Z,13.3
2017-09-08T04:30:45.261Z,13.3
2017-09-08T04:31:47.995Z,13.3
2017-09-08T04:32:50.384Z,13.3
2017-09-08T04:33:52.779Z,13.3
2017-09-08T04:34:55.161Z,13.3
2017-09-08T04:35:57.564Z,13.3
2017-09-08T04:36:59.950Z,13.3
2017-09-08T04:38:02.348Z,13.3
2017-09-08T04:39:04.746Z,13.3
2017-09-08T04:40:07.135Z,13.3
2017-09-08T04:41:09.530Z,13.3
2017-09-08T04:42:11.928Z,13.3
2017-09-08T04:43:14.310Z,13.3
2017-09-08T04:44:16.716Z,13.3
2017-09-08T04:45:19.104Z,13.3
2017-09-08T04:46:21.498Z,13.3
2017-09-08T04:47:24.228Z,13.3
2017-09-08T04:48:26.965Z,13.3
2017-09-08T04:49:29.702Z,13.3
2017-09-08T04:50:32.094Z,13.3
2017-09-08T04:51:34.498Z,13.3
2017-09-08T04:52:36.894Z,13.3
2017-09-08T04:53:39.289Z,13.3
2017-09-08T04:54:42.017Z,13.3
2017-09-08T04:55:44.411Z,13.3
2017-09-08T04:56:46.799Z,13.3
2017-09-08T04:57:49.196Z,13.3
2017-09-08T04:58:51.944Z,13.3
2017-09-08T04:59:54.340Z,13.3
2017-09-08T05:00:56.741Z,13.2
2017-09-08T05:01:59.142Z,13.2
2017-09-08T05:03:01.533Z,13.2
2017-09-08T05:04:04.273Z,13.2
2017-09-08T05:05:06.673Z,13.2
2017-09-08T05:06:09.070Z,13.2
2017-09-08T05:07:11.466Z,13.2
2017-09-08T05:08:13.854Z,13.2
2017-09-08T05:09:16.248Z,13.2
2017-09-08T05:10:18.648Z,13.2
2017-09-08T05:11:21.036Z,13.2
2017-09-08T05:12:23.762Z,13.2
2017-09-08T05:13:26.159Z,13.2
2017-09-08T05:14:28.547Z,13.1
2017-09-08T05:15:30.953Z,13.1
2017-09-08T05:16:33.685Z,13.1
2017-09-08T05:17:36.070Z,13.1
2017-09-08T05:18:38.467Z,13.1
2017-09-08T05:19:40.865Z,13.1
2017-09-08T05:20:43.261Z,13.1
2017-09-08T05:21:45.660Z,13.1
2017-09-08T05:22:48.068Z,13.1
2017-09-08T05:23:50.456Z,13.1
2017-09-08T05:24:52.839Z,13.1
2017-09-08T05:25:55.234Z,13.1
2017-09-08T05:26:57.627Z,13.1
2017-09-08T05:28:00.022Z,13.1
2017-09-08T05:29:02.411Z,13.1
2017-09-08T05:30:04.802Z,13.1
2017-09-08T05:31:07.201Z,13.1
2017-09-08T05:32:09.941Z,13.1
2017-09-08T05:33:12.335Z,13.2
2017-09-08T05:34:14.724Z,13.2
2017-09-08T05:35:17.121Z,13.2
2017-09-08T05:36:19.523Z,13.2
2017-09-08T05:37:21.921Z,13.2
2017-09-08T05:38:24.312Z,13.2
2017-09-08T05:39:26.703Z,13.2
2017-09-08T05:40:29.096Z,13.2
2017-09-08T05:41:31.496Z,13.2
2017-09-08T05:42:33.885Z,13.2
2017-09-08T05:43:36.280Z,13.1
2017-09-08T05:44:38.673Z,13.1
2017-09-08T05:45:41.408Z,13.1
2017-09-08T05:46:43.802Z,13.1
2017-09-08T05:47:46.242Z,13.1
2017-09-08T05:48:48.596Z,13.1
2017-09-08T05:49:50.992Z,13.1
2017-09-08T05:50:53.384Z,13.1
2017-09-08T05:51:56.117Z,13.1
2017-09-08T05:52:58.522Z,13.1
2017-09-08T05:54:00.912Z,13.2
2017-09-08T05:55:03.307Z,13.2
2017-09-08T05:56:05.686Z,13.2
2017-09-08T05:57:08.095Z,13.1
2017-09-08T05:58:10.484Z,13.2
2017-09-08T05:59:12.881Z,13.2
2017-09-08T06:00:15.275Z,13.1
2017-09-08T06:01:17.670Z,13.2
2017-09-08T06:02:20.064Z,13.2
2017-09-08T06:03:22.801Z,13.2
2017-09-08T06:04:25.184Z,13.2
2017-09-08T06:05:27.578Z,13.2
2017-09-08T06:06:30.311Z,13.2
2017-09-08T06:07:32.709Z,13.2
2017-09-08T06:08:35.098Z,13.3
2017-09-08T06:09:37.495Z,13.3
2017-09-08T06:10:39.889Z,13.3
2017-09-08T06:11:42.282Z,13.3
2017-09-08T06:12:44.682Z,13.3
2017-09-08T06:13:47.076Z,13.3
2017-09-08T06:14:49.469Z,13.2
2017-09-08T06:15:51.863Z,13.2
2017-09-08T06:16:54.251Z,13.2
2017-09-08T06:17:56.644Z,13.2
2017-09-08T06:18:59.037Z,13.2
2017-09-08T06:20:01.435Z,13.2
2017-09-08T06:21:03.825Z,13.2
2017-09-08T06:22:06.210Z,13.2
2017-09-08T06:23:08.600Z,13.2
2017-09-08T06:24:11.004Z,13.2
2017-09-08T06:25:13.394Z,13.2
2017-09-08T06:26:15.782Z,13.2
2017-09-08T06:27:18.176Z,13.2
2017-09-08T06:28:20.570Z,13.2
2017-09-08T06:29:22.978Z,13.2
2017-09-08T06:30:25.369Z,13.2
2017-09-08T06:31:27.759Z,13.1
2017-09-08T06:32:30.156Z,13.1
2017-09-08T06:33:32.886Z,13.1
2017-09-08T06:34:35.282Z,13.1
2017-09-08T06:35:37.674Z,13.1
2017-09-08T06:36:40.078Z,13.1
2017-09-08T06:37:42.465Z,13.2
2017-09-08T06:38:44.865Z,13.1
2017-09-08T06:39:47.255Z,13.2
2017-09-08T06:40:49.645Z,13.2
2017-09-08T06:41:52.043Z,13.2
2017-09-08T06:42:54.438Z,13.2
2017-09-08T06:43:56.827Z,13.1
2017-09-08T06:44:59.220Z,13.1
2017-09-08T06:46:01.609Z,13.1
2017-09-08T06:47:04.005Z,13.1
2017-09-08T06:48:06.398Z,13.1
2017-09-08T06:49:08.796Z,13.1
2017-09-08T06:50:11.184Z,13.1
2017-09-08T06:51:13.579Z,13.1
2017-09-08T06:52:15.967Z,13.1
2017-09-08T06:53:18.363Z,13.2
2017-09-08T06:54:21.096Z,13.2
2017-09-08T06:55:23.498Z,13.2
2017-09-08T06:56:25.886Z,13.2
2017-09-08T06:57:28.280Z,13.2
2017-09-08T06:58:30.672Z,13.2
2017-09-08T06:59:33.072Z,13.2
2017-09-08T07:00:35.467Z,13.2
2017-09-08T07:01:37.859Z,13.2
2017-09-08T07:02:40.238Z,13.3
2017-09-08T07:03:42.644Z,13.3
2017-09-08T07:04:45.024Z,13.3
2017-09-08T07:05:47.422Z,13.3
2017-09-08T07:06:49.820Z,13.3
2017-09-08T07:07:52.214Z,13.3
2017-09-08T07:08:54.611Z,13.3
2017-09-08T07:09:57.005Z,13.4
2017-09-08T07:10:59.397Z,13.4
2017-09-08T07:12:01.797Z,13.4
2017-09-08T07:13:04.189Z,13.4
2017-09-08T07:14:06.571Z,13.4
2017-09-08T07:15:08.969Z,13.4
2017-09-08T07:16:11.364Z,13.4
2017-09-08T07:17:13.751Z,13.5
2017-09-08T07:18:16.481Z,13.5
2017-09-08T07:19:18.880Z,13.5
2017-09-08T07:20:21.271Z,13.5
2017-09-08T07:21:23.661Z,13.5
2017-09-08T07:22:26.060Z,13.5
2017-09-08T07:23:28.458Z,13.6
2017-09-08T07:24:30.854Z,13.6
2017-09-08T07:25:33.255Z,13.6
2017-09-08T07:26:35.647Z,13.6
2017-09-08T07:27:38.047Z,13.6
2017-09-08T07:28:40.438Z,13.6
2017-09-08T07:29:42.834Z,13.6
2017-09-08T07:30:45.230Z,13.6
2017-09-08T07:31:47.625Z,13.6
2017-09-08T07:32:50.020Z,13.6
2017-09-08T07:33:52.404Z,13.7
2017-09-08T07:34:54.797Z,13.6
2017-09-08T07:35:57.198Z,13.6
2017-09-08T07:36:59.585Z,13.7
2017-09-08T07:38:01.992Z,13.7
2017-09-08T07:39:04.720Z,13.7
2017-09-08T07:40:07.110Z,13.7
2017-09-08T07:41:09.502Z,13.7
2017-09-08T07:42:11.892Z,13.7
2017-09-08T07:43:14.290Z,13.7
2017-09-08T07:44:16.682Z,13.7
2017-09-08T07:45:19.069Z,13.7
2017-09-08T07:46:21.467Z,13.7
2017-09-08T07:47:23.870Z,13.7
2017-09-08T07:48:26.262Z,13.7
2017-09-08T07:49:28.651Z,13.7
2017-09-08T07:50:31.051Z,13.7
2017-09-08T07:51:33.453Z,13.7
2017-09-08T07:52:35.839Z,13.7
2017-09-08T07:53:38.231Z,13.7
2017-09-08T07:54:40.634Z,13.7
2017-09-08T07:55:43.021Z,13.7
2017-09-08T07:56:45.415Z,13.7
2017-09-08T07:57:48.152Z,13.7
2017-09-08T07:58:50.541Z,13.7
2017-09-08T07:59:53.623Z,13.7
2017-09-08T08:00:56.015Z,13.7
2017-09-08T08:01:58.397Z,13.7
2017-09-08T08:03:00.799Z,13.7
2017-09-08T08:04:03.527Z,13.7
2017-09-08T08:05:05.923Z,13.7
2017-09-08T08:06:08.325Z,13.7
2017-09-08T08:07:10.721Z,13.7
2017-09-08T08:08:13.108Z,13.7
2017-09-08T08:09:15.501Z,13.8
2017-09-08T08:10:18.231Z,13.8
2017-09-08T08:11:20.625Z,13.8
2017-09-08T08:12:23.028Z,13.8
2017-09-08T08:13:25.414Z,13.8
2017-09-08T08:14:27.805Z,13.8
2017-09-08T08:15:30.202Z,13.8
2017-09-08T08:16:32.597Z,13.8
2017-09-08T08:17:34.989Z,13.8
2017-09-08T08:18:37.394Z,13.8
2017-09-08T08:19:40.127Z,13.8
2017-09-08T08:20:42.520Z,13.8
2017-09-08T08:21:45.263Z,13.8
2017-09-08T08:22:47.657Z,13.8
2017-09-08T08:23:50.052Z,13.8
2017-09-08T08:24:52.453Z,13.9
2017-09-08T08:25:54.838Z,13.8
2017-09-08T08:26:57.233Z,13.8
2017-09-08T08:27:59.633Z,13.8
2017-09-08T08:29:02.365Z,13.8
2017-09-08T08:30:04.753Z,13.8
2017-09-08T08:31:07.149Z,13.8
2017-09-08T08:32:09.538Z,13.8
2017-09-08T08:33:12.275Z,13.8
2017-09-08T08:34:14.669Z,13.8
2017-09-08T08:35:17.062Z,13.8
2017-09-08T08:36:19.464Z,13.8
2017-09-08T08:37:21.863Z,13.8
2017-09-08T08:38:24.253Z,13.8
2017-09-08T08:39:26.651Z,13.7
2017-09-08T08:40:29.049Z,13.8
2017-09-08T08:41:31.438Z,13.8
2017-09-08T08:42:33.832Z,13.8
2017-09-08T08:43:36.223Z,13.8
2017-09-08T08:44:38.942Z,13.8
2017-09-08T08:45:41.345Z,13.8
2017-09-08T08:46:43.739Z,13.8
2017-09-08T08:47:46.470Z,13.8
2017-09-08T08:48:48.861Z,13.8
2017-09-08T08:49:51.266Z,13.8
2017-09-08T08:50:53.653Z,13.8
2017-09-08T08:51:56.048Z,13.8
2017-09-08T08:52:58.442Z,13.7
2017-09-08T08:54:01.169Z,13.8
2017-09-08T08:55:03.557Z,13.8
2017-09-08T08:56:05.951Z,13.8
2017-09-08T08:57:08.341Z,13.8
2017-09-08T08:58:10.738Z,13.8
2017-09-08T08:59:13.130Z,13.8
2017-09-08T09:00:15.523Z,13.8
2017-09-08T09:01:17.919Z,13.8
2017-09-08T09:02:20.319Z,13.8
2017-09-08T09:03:22.706Z,13.8
2017-09-08T09:04:25.099Z,13.8
2017-09-08T09:05:27.495Z,13.8
2017-09-08T09:06:29.885Z,13.8
2017-09-08T09:07:32.276Z,13.8
2017-09-08T09:08:34.672Z,13.8
2017-09-08T09:09:37.055Z,13.8
2017-09-08T09:10:39.458Z,13.8
2017-09-08T09:11:41.850Z,13.8
2017-09-08T09:12:44.241Z,13.8
2017-09-08T09:13:46.633Z,13.8
2017-09-08T09:14:49.029Z,13.8
2017-09-08T09:15:51.424Z,13.8
2017-09-08T09:16:54.153Z,13.8
2017-09-08T09:17:56.557Z,13.8
2017-09-08T09:18:58.957Z,13.8
2017-09-08T09:20:01.353Z,13.8
2017-09-08T09:21:03.747Z,13.8
2017-09-08T09:22:06.144Z,13.8
2017-09-08T09:23:08.531Z,13.8
2017-09-08T09:24:10.934Z,13.8
2017-09-08T09:25:13.322Z,13.8
2017-09-08T09:26:15.717Z,13.8
2017-09-08T09:27:18.116Z,13.8
2017-09-08T09:28:20.517Z,13.8
2017-09-08T09:29:22.903Z,13.8
2017-09-08T09:30:25.302Z,13.8
2017-09-08T09:31:28.032Z,13.7
2017-09-08T09:32:30.430Z,13.7
2017-09-08T09:33:32.827Z,13.7
2017-09-08T09:34:35.220Z,13.8
2017-09-08T09:35:37.606Z,13.8
2017-09-08T09:36:40.352Z,13.8
2017-09-08T09:37:42.739Z,13.8
2017-09-08T09:38:45.129Z,13.9
2017-09-08T09:39:47.527Z,13.9
2017-09-08T09:40:49.920Z,13.9
2017-09-08T09:41:52.660Z,13.9
2017-09-08T09:42:55.063Z,13.9
2017-09-08T09:43:57.442Z,14
2017-09-08T09:44:59.841Z,14
2017-09-08T09:46:02.582Z,14
2017-09-08T09:47:04.978Z,14
2017-09-08T09:48:07.373Z,14
2017-09-08T09:49:09.774Z,14
2017-09-08T09:50:12.161Z,14
2017-09-08T09:51:14.893Z,14
2017-09-08T09:52:17.287Z,14.1
2017-09-08T09:53:19.683Z,14.1
2017-09-08T09:54:22.099Z,14.1
2017-09-08T09:55:24.467Z,14.1
2017-09-08T09:56:26.862Z,14.1
2017-09-08T09:57:29.260Z,14.1
2017-09-08T09:58:31.662Z,14.1
2017-09-08T09:59:34.082Z,14.1
2017-09-08T10:00:36.451Z,14.1
2017-09-08T10:01:38.839Z,14.1
2017-09-08T10:02:41.601Z,14.1
2017-09-08T10:03:43.996Z,14.1
2017-09-08T10:04:46.380Z,14.1
2017-09-08T10:05:49.110Z,14.1
2017-09-08T10:06:51.501Z,14.1
2017-09-08T10:07:53.902Z,14.1
2017-09-08T10:08:56.288Z,14.1
2017-09-08T10:09:58.685Z,14.1
2017-09-08T10:11:01.077Z,14.1
2017-09-08T10:12:03.476Z,14.1
2017-09-08T10:13:06.205Z,14.1
2017-09-08T10:14:08.602Z,14.1
2017-09-08T10:15:10.990Z,14.1
2017-09-08T10:16:13.398Z,14.1
2017-09-08T10:17:15.786Z,14.1
2017-09-08T10:18:18.175Z,14.1
2017-09-08T10:19:20.572Z,14.1
2017-09-08T10:20:22.967Z,14.1
2017-09-08T10:21:25.351Z,14.2
2017-09-08T10:22:27.747Z,14.1
2017-09-08T10:23:30.133Z,14.1
2017-09-08T10:24:32.535Z,14.1
2017-09-08T10:25:34.927Z,14.1
2017-09-08T10:26:37.325Z,14.1
2017-09-08T10:27:39.721Z,14.1
2017-09-08T10:28:42.121Z,14.1
2017-09-08T10:29:44.507Z,14.1
2017-09-08T10:30:46.908Z,14.1
2017-09-08T10:31:49.291Z,14.1
2017-09-08T10:32:51.689Z,14.1
2017-09-08T10:33:54.096Z,14.1
2017-09-08T10:34:56.489Z,14.1
2017-09-08T10:35:58.880Z,14.1
2017-09-08T10:37:01.268Z,14.1
2017-09-08T10:38:03.663Z,14.1
2017-09-08T10:39:06.060Z,14.1
2017-09-08T10:40:08.456Z,14.1
2017-09-08T10:41:10.842Z,14.1
2017-09-08T10:42:13.238Z,14.2
2017-09-08T10:43:15.637Z,14.2
2017-09-08T10:44:18.028Z,14.2
2017-09-08T10:45:20.423Z,14.1
2017-09-08T10:46:22.822Z,14.2
2017-09-08T10:47:25.214Z,14.1
2017-09-08T10:48:27.600Z,14.2
2017-09-08T10:49:29.996Z,14.2
2017-09-08T10:50:32.397Z,14.2
2017-09-08T10:51:34.792Z,14.2
2017-09-08T10:52:37.522Z,14.2
2017-09-08T10:53:39.919Z,14.2
2017-09-08T10:54:42.314Z,14.2
2017-09-08T10:55:44.722Z,14.2
2017-09-08T10:56:47.112Z,14.2
2017-09-08T10:57:49.503Z,14.2
2017-09-08T10:58:51.898Z,14.2
2017-09-08T10:59:54.290Z,14.2
2017-09-08T11:00:56.684Z,14.2
2017-09-08T11:01:59.080Z,14.2
2017-09-08T11:03:01.479Z,14.2
2017-09-08T11:04:03.871Z,14.2
2017-09-08T11:05:06.274Z,14.2
2017-09-08T11:06:08.675Z,14.2
2017-09-08T11:07:11.068Z,14.2
2017-09-08T11:08:13.472Z,14.2
2017-09-08T11:09:15.860Z,14.2
2017-09-08T11:10:18.258Z,14.2
2017-09-08T11:11:20.653Z,14.2
2017-09-08T11:12:23.051Z,14.2
2017-09-08T11:13:25.779Z,14.2
2017-09-08T11:14:28.172Z,14.2
2017-09-08T11:15:30.571Z,14.3
2017-09-08T11:16:32.971Z,14.3
2017-09-08T11:17:35.692Z,14.4
2017-09-08T11:18:38.085Z,14.4
2017-09-08T11:19:40.476Z,14.4
2017-09-08T11:20:42.873Z,14.4
2017-09-08T11:21:45.277Z,14.4
2017-09-08T11:22:47.671Z,14.5
2017-09-08T11:23:50.061Z,14.5
2017-09-08T11:24:52.459Z,14.5
2017-09-08T11:25:54.852Z,14.4
2017-09-08T11:26:57.248Z,14.4
2017-09-08T11:27:59.644Z,14.4
2017-09-08T11:29:02.026Z,14.4
2017-09-08T11:30:04.774Z,14.4
2017-09-08T11:31:07.168Z,14.4
2017-09-08T11:32:09.563Z,14.4
2017-09-08T11:33:11.956Z,14.4
2017-09-08T11:34:14.354Z,14.4
2017-09-08T11:35:17.085Z,14.4
2017-09-08T11:36:19.818Z,14.4
2017-09-08T11:37:22.211Z,14.4
2017-09-08T11:38:24.943Z,14.4
2017-09-08T11:39:27.343Z,14.4
2017-09-08T11:40:29.738Z,14.4
2017-09-08T11:41:32.132Z,14.4
2017-09-08T11:42:34.528Z,14.3
2017-09-08T11:43:36.923Z,14.3
2017-09-08T11:44:39.356Z,14.4
2017-09-08T11:45:41.774Z,14.4
2017-09-08T11:46:44.167Z,14.4
2017-09-08T11:47:46.900Z,14.3
2017-09-08T11:48:49.300Z,14.3
2017-09-08T11:49:51.699Z,14.3
2017-09-08T11:50:54.095Z,14.3
2017-09-08T11:51:56.545Z,14.3
2017-09-08T11:52:58.927Z,14.3
2017-09-08T11:54:01.329Z,14.3
2017-09-08T11:55:03.723Z,14.3
2017-09-08T11:56:06.121Z,14.3
2017-09-08T11:57:08.514Z,14.3
2017-09-08T11:58:10.907Z,14.3
2017-09-08T11:59:13.663Z,14.3
2017-09-08T12:00:16.058Z,14.2
2017-09-08T12:01:18.461Z,14.2
2017-09-08T12:02:20.859Z,14.2
2017-09-08T12:03:23.248Z,14.2
2017-09-08T12:04:25.654Z,14.3
2017-09-08T12:05:28.047Z,14.2
2017-09-08T12:06:30.437Z,14.2
2017-09-08T12:07:32.832Z,14.2
2017-09-08T12:08:35.220Z,14.2
2017-09-08T12:09:37.617Z,14.2
2017-09-08T12:10:40.013Z,14.2
2017-09-08T12:11:42.741Z,14.2
2017-09-08T12:12:45.137Z,14.2
2017-09-08T12:13:47.540Z,14.2
2017-09-08T12:14:49.931Z,14.2
2017-09-08T12:15:52.332Z,14.1
2017-09-08T12:16:54.730Z,14.2
2017-09-08T12:17:57.123Z,14.1
2017-09-08T12:18:59.509Z,14.1
2017-09-08T12:20:01.900Z,14.1
2017-09-08T12:21:04.664Z,14.1
2017-09-08T12:22:07.058Z,14.1
2017-09-08T12:23:09.454Z,14.1
2017-09-08T12:24:12.209Z,14.1
2017-09-08T12:25:14.601Z,14.1
2017-09-08T12:26:16.988Z,14.1
2017-09-08T12:27:19.390Z,14.1
2017-09-08T12:28:21.771Z,14.1
2017-09-08T12:29:24.171Z,14.2
2017-09-08T12:30:26.571Z,14.2
2017-09-08T12:31:28.974Z,14.2
2017-09-08T12:32:31.364Z,14.2
2017-09-08T12:33:33.757Z,14.2
2017-09-08T12:34:36.150Z,14.2
2017-09-08T12:35:38.556Z,14.2
2017-09-08T12:36:41.283Z,14.2
2017-09-08T12:37:43.678Z,14.2
2017-09-08T12:38:46.065Z,14.2
2017-09-08T12:39:48.460Z,14.2
2017-09-08T12:40:50.855Z,14.2
2017-09-08T12:41:53.251Z,14.2
2017-09-08T12:42:55.639Z,14.2
2017-09-08T12:43:58.041Z,14.3
2017-09-08T12:45:00.438Z,14.3
2017-09-08T12:46:02.826Z,14.3
2017-09-08T12:47:05.225Z,14.3
2017-09-08T12:48:07.613Z,14.3
2017-09-08T12:49:10.012Z,14.3
2017-09-08T12:50:12.409Z,14.3
2017-09-08T12:51:14.804Z,14.3
2017-09-08T12:52:17.198Z,14.3
2017-09-08T12:53:19.943Z,14.3
2017-09-08T12:54:22.333Z,14.4
2017-09-08T12:55:24.738Z,14.4
2017-09-08T12:56:27.129Z,14.4
2017-09-08T12:57:29.890Z,14.4
2017-09-08T12:58:32.290Z,14.4
2017-09-08T12:59:34.689Z,14.4
2017-09-08T13:00:37.081Z,14.4
2017-09-08T13:01:39.507Z,14.4
2017-09-08T13:02:41.874Z,14.4
2017-09-08T13:03:44.271Z,14.4
2017-09-08T13:04:46.668Z,14.4
2017-09-08T13:05:49.067Z,14.4
2017-09-08T13:06:51.459Z,14.4
2017-09-08T13:07:53.850Z,14.5
2017-09-08T13:08:56.241Z,14.5
2017-09-08T13:09:58.641Z,14.5
2017-09-08T13:11:01.031Z,14.5
2017-09-08T13:12:03.779Z,14.5
2017-09-08T13:13:06.180Z,14.5
2017-09-08T13:14:08.571Z,14.5
2017-09-08T13:15:10.962Z,14.5
2017-09-08T13:16:13.353Z,14.5
2017-09-08T13:17:15.744Z,14.5
2017-09-08T13:18:18.139Z,14.5
2017-09-08T13:19:20.533Z,14.5
2017-09-08T13:20:22.937Z,14.5
2017-09-08T13:21:25.332Z,14.5
2017-09-08T13:22:27.730Z,14.5
2017-09-08T13:23:30.129Z,14.5
2017-09-08T13:24:32.516Z,14.5
2017-09-08T13:25:34.907Z,14.4
2017-09-08T13:26:37.307Z,14.4
2017-09-08T13:27:39.687Z,14.4
2017-09-08T13:28:42.094Z,14.4
2017-09-08T13:29:44.494Z,14.4
2017-09-08T13:30:46.883Z,14.4
2017-09-08T13:31:49.283Z,14.4
2017-09-08T13:32:51.674Z,14.4
2017-09-08T13:33:54.065Z,14.4
2017-09-08T13:34:56.471Z,14.4
2017-09-08T13:35:58.866Z,14.4
2017-09-08T13:37:01.269Z,14.4
2017-09-08T13:38:03.670Z,14.4
2017-09-08T13:39:06.063Z,14.4
2017-09-08T13:40:08.458Z,14.4
2017-09-08T13:41:10.861Z,14.4
2017-09-08T13:42:13.248Z,14.4
2017-09-08T13:43:15.640Z,14.4
2017-09-08T13:44:18.043Z,14.4
2017-09-08T13:45:20.437Z,14.4
2017-09-08T13:46:22.827Z,14.4
2017-09-08T13:47:25.231Z,14.4
2017-09-08T13:48:27.641Z,14.4
2017-09-08T13:49:30.032Z,14.4
2017-09-08T13:50:32.431Z,14.4
2017-09-08T13:51:34.816Z,14.4